createdAt,value
2017-08-23T00:00:33.754Z,927.25
2017-08-23T00:01:01.804Z,927.13
2017-08-23T00:01:29.841Z,927.23
2017-08-23T00:01:59.458Z,927.27
2017-08-23T00:02:27.847Z,927.24
2017-08-23T00:02:55.902Z,927.29
2017-08-23T00:03:23.798Z,927.2
2017-08-23T00:03:51.756Z,927.31
2017-08-23T00:04:19.709Z,927.29
2017-08-23T00:04:47.766Z,927.33
2017-08-23T00:05:15.813Z,927.3
2017-08-23T00:05:43.689Z,927.31
2017-08-23T00:06:11.746Z,927.29
2017-08-23T00:06:39.707Z,927.29
2017-08-23T00:07:08.543Z,927.25
2017-08-23T00:07:36.496Z,927.23
2017-08-23T00:08:04.678Z,927.28
2017-08-23T00:08:33.442Z,927.29
2017-08-23T00:09:01.494Z,927.3
2017-08-23T00:09:29.541Z,927.25
2017-08-23T00:09:57.593Z,927.27
2017-08-23T00:10:25.658Z,927.3
2017-08-23T00:10:53.718Z,927.25
2017-08-23T00:11:21.677Z,927.24
2017-08-23T00:11:49.725Z,927.23
2017-08-23T00:12:17.925Z,927.2
2017-08-23T00:12:45.886Z,927.21
2017-08-23T00:13:13.936Z,927.24
2017-08-23T00:13:41.982Z,927.19
2017-08-23T00:14:10.038Z,927.32
2017-08-23T00:14:38.091Z,927.16
2017-08-23T00:15:06.051Z,927.23
2017-08-23T00:15:35.676Z,927.2
2017-08-23T00:16:03.762Z,927.32
2017-08-23T00:16:32.506Z,927.21
2017-08-23T00:17:00.664Z,927.25
2017-08-23T00:17:28.630Z,927.3
2017-08-23T00:17:56.675Z,927.29
2017-08-23T00:18:24.545Z,927.26
2017-08-23T00:18:52.593Z,927.26
2017-08-23T00:19:20.556Z,927.32
2017-08-23T00:19:48.423Z,927.26
2017-08-23T00:20:17.255Z,927.21
2017-08-23T00:20:45.308Z,927.25
2017-08-23T00:21:14.035Z,927.16
2017-08-23T00:21:43.561Z,927.22
2017-08-23T00:22:11.528Z,927.22
2017-08-23T00:22:39.499Z,927.23
2017-08-23T00:23:07.552Z,927.26
2017-08-23T00:23:36.379Z,927.27
2017-08-23T00:24:05.122Z,927.24
2017-08-23T00:24:33.176Z,927.27
2017-08-23T00:25:01.222Z,927.26
2017-08-23T00:25:30.050Z,927.29
2017-08-23T00:25:58.005Z,927.3
2017-08-23T00:26:26.575Z,927.29
2017-08-23T00:26:54.536Z,927.26
2017-08-23T00:27:23.123Z,927.31
2017-08-23T00:27:51.175Z,927.28
2017-08-23T00:28:19.239Z,927.29
2017-08-23T00:28:49.633Z,927.17
2017-08-23T00:29:17.516Z,927.2
2017-08-23T00:29:45.471Z,927.36
2017-08-23T00:30:13.501Z,927.08
2017-08-23T00:30:41.543Z,927.2
2017-08-23T00:31:09.493Z,927.27
2017-08-23T00:31:37.441Z,927.09
2017-08-23T00:32:05.488Z,927.22
2017-08-23T00:32:34.323Z,927.31
2017-08-23T00:33:02.379Z,927.12
2017-08-23T00:33:30.354Z,927.08
2017-08-23T00:33:58.412Z,927.22
2017-08-23T00:34:26.379Z,927.22
2017-08-23T00:34:54.419Z,926.96
2017-08-23T00:35:22.467Z,926.89
2017-08-23T00:35:50.520Z,927.08
2017-08-23T00:36:18.580Z,926.88
2017-08-23T00:36:46.622Z,927.01
2017-08-23T00:37:15.449Z,927.26
2017-08-23T00:37:43.493Z,927.16
2017-08-23T00:38:13.014Z,927.23
2017-08-23T00:38:41.045Z,927.26
2017-08-23T00:39:47.374Z,927.15
2017-08-23T00:40:16.112Z,927.27
2017-08-23T00:40:44.147Z,927.25
2017-08-23T00:41:13.762Z,927.18
2017-08-23T00:41:42.592Z,927.26
2017-08-23T00:42:11.579Z,927.23
2017-08-23T00:42:39.586Z,927.2
2017-08-23T00:43:07.544Z,927.22
2017-08-23T00:43:35.581Z,927.3
2017-08-23T00:44:03.362Z,927.15
2017-08-23T00:44:31.407Z,927.19
2017-08-23T00:45:00.234Z,926.96
2017-08-23T00:45:29.065Z,927.22
2017-08-23T00:45:57.109Z,927.11
2017-08-23T00:46:25.932Z,927.22
2017-08-23T00:46:53.872Z,927.16
2017-08-23T00:47:22.519Z,927.1
2017-08-23T00:47:50.474Z,927.17
2017-08-23T00:48:18.532Z,927.14
2017-08-23T00:48:46.571Z,927.19
2017-08-23T00:49:15.408Z,927.05
2017-08-23T00:49:43.472Z,927.23
2017-08-23T00:50:11.529Z,927.17
2017-08-23T00:50:39.580Z,927.17
2017-08-23T00:51:07.975Z,927.13
2017-08-23T00:51:36.026Z,926.97
2017-08-23T00:52:03.981Z,927.06
2017-08-23T00:52:32.046Z,927.09
2017-08-23T00:53:00.139Z,927.18
2017-08-23T00:53:28.098Z,927.09
2017-08-23T00:53:56.936Z,927.11
2017-08-23T00:54:24.987Z,926.86
2017-08-23T00:54:53.043Z,927.06
2017-08-23T00:55:21.104Z,927.14
2017-08-23T00:55:49.931Z,927.01
2017-08-23T00:56:17.979Z,926.78
2017-08-23T00:56:45.944Z,926.85
2017-08-23T00:57:13.889Z,927.06
2017-08-23T00:57:43.933Z,927.14
2017-08-23T00:58:12.758Z,927.03
2017-08-23T00:58:41.028Z,927.08
2017-08-23T00:59:09.857Z,927.15
2017-08-23T00:59:37.820Z,927.12
2017-08-23T01:00:06.645Z,927.13
2017-08-23T01:00:34.782Z,927.18
2017-08-23T01:01:02.841Z,927.16
2017-08-23T01:01:30.903Z,926.96
2017-08-23T01:01:58.969Z,927.14
2017-08-23T01:02:28.596Z,927.04
2017-08-23T01:02:57.425Z,927.19
2017-08-23T01:03:26.262Z,927.17
2017-08-23T01:03:54.241Z,927.17
2017-08-23T01:04:22.288Z,927.13
2017-08-23T01:04:51.029Z,927.09
2017-08-23T01:05:19.096Z,926.86
2017-08-23T01:05:47.150Z,927.17
2017-08-23T01:06:15.974Z,927.1
2017-08-23T01:06:45.502Z,927.16
2017-08-23T01:07:13.287Z,927.06
2017-08-23T01:07:41.937Z,927.13
2017-08-23T01:08:09.983Z,927.09
2017-08-23T01:08:37.945Z,927.2
2017-08-23T01:09:05.906Z,927.19
2017-08-23T01:09:34.723Z,927.1
2017-08-23T01:10:03.548Z,927.22
2017-08-23T01:10:31.588Z,927.17
2017-08-23T01:10:59.631Z,927.17
2017-08-23T01:11:27.667Z,927.12
2017-08-23T01:11:55.723Z,927.19
2017-08-23T01:12:23.790Z,927.13
2017-08-23T01:12:51.987Z,927.24
2017-08-23T01:13:20.038Z,927.14
2017-08-23T01:13:48.096Z,927
2017-08-23T01:14:16.734Z,927.24
2017-08-23T01:14:46.346Z,927.18
2017-08-23T01:15:15.192Z,927.01
2017-08-23T01:15:43.239Z,927.15
2017-08-23T01:16:12.052Z,927.22
2017-08-23T01:16:40.824Z,927.21
2017-08-23T01:17:08.872Z,927.13
2017-08-23T01:17:36.823Z,927.18
2017-08-23T01:18:05.554Z,927.04
2017-08-23T01:19:11.881Z,927.18
2017-08-23T01:19:39.839Z,926.67
2017-08-23T01:20:07.879Z,926.9
2017-08-23T01:20:35.924Z,927.25
2017-08-23T01:21:03.968Z,927.23
2017-08-23T01:21:32.022Z,927.22
2017-08-23T01:22:00.845Z,927.15
2017-08-23T01:22:28.900Z,927.21
2017-08-23T01:22:56.857Z,927.09
2017-08-23T01:23:24.951Z,927.05
2017-08-23T01:23:53.877Z,927.22
2017-08-23T01:24:21.926Z,927.17
2017-08-23T01:24:49.882Z,927.16
2017-08-23T01:25:17.656Z,927.29
2017-08-23T01:25:46.481Z,927.3
2017-08-23T01:26:14.536Z,927.14
2017-08-23T01:26:42.405Z,927.19
2017-08-23T01:27:10.450Z,927.08
2017-08-23T01:27:39.391Z,927.19
2017-08-23T01:28:07.181Z,927.18
2017-08-23T01:28:35.161Z,927.07
2017-08-23T01:29:04.010Z,927.16
2017-08-23T01:29:33.540Z,927.1
2017-08-23T01:30:03.156Z,927.11
2017-08-23T01:30:31.202Z,926.97
2017-08-23T01:30:59.183Z,927.03
2017-08-23T01:31:27.245Z,927.26
2017-08-23T01:31:55.302Z,927.2
2017-08-23T01:32:23.350Z,927.13
2017-08-23T01:32:53.064Z,927.25
2017-08-23T01:33:21.118Z,927.15
2017-08-23T01:33:49.167Z,926.81
2017-08-23T01:34:17.999Z,926.75
2017-08-23T01:34:46.052Z,926.95
2017-08-23T01:35:14.000Z,926.77
2017-08-23T01:35:42.059Z,927.25
2017-08-23T01:36:10.017Z,926.81
2017-08-23T01:36:39.533Z,927.08
2017-08-23T01:37:09.151Z,927.08
2017-08-23T01:37:37.887Z,927.05
2017-08-23T01:38:05.760Z,927.27
2017-08-23T01:38:33.805Z,927.12
2017-08-23T01:39:01.856Z,927.12
2017-08-23T01:39:30.608Z,927.05
2017-08-23T01:39:58.555Z,927.18
2017-08-23T01:40:26.615Z,927.16
2017-08-23T01:40:54.580Z,927.19
2017-08-23T01:41:22.641Z,927.16
2017-08-23T01:41:50.608Z,927
2017-08-23T01:42:18.568Z,927.06
2017-08-23T01:42:46.777Z,927.2
2017-08-23T01:43:14.738Z,927.24
2017-08-23T01:43:43.476Z,927.26
2017-08-23T01:44:11.434Z,927.14
2017-08-23T01:44:39.491Z,927.04
2017-08-23T01:45:07.542Z,927.17
2017-08-23T01:45:35.596Z,927.15
2017-08-23T01:46:03.554Z,927.12
2017-08-23T01:46:31.610Z,927.25
2017-08-23T01:46:59.674Z,927.18
2017-08-23T01:47:27.723Z,926.98
2017-08-23T01:47:55.791Z,926.94
2017-08-23T01:48:23.753Z,927.08
2017-08-23T01:48:52.562Z,927.1
2017-08-23T01:49:20.603Z,927
2017-08-23T01:49:48.646Z,927.16
2017-08-23T01:50:18.162Z,927.24
2017-08-23T01:50:46.208Z,927.13
2017-08-23T01:51:14.272Z,927.22
2017-08-23T01:51:43.010Z,927.09
2017-08-23T01:52:13.410Z,927.12
2017-08-23T01:52:42.259Z,927.1
2017-08-23T01:53:10.319Z,927.19
2017-08-23T01:53:38.359Z,927.11
2017-08-23T01:54:06.330Z,926.99
2017-08-23T01:54:34.382Z,927.17
2017-08-23T01:55:03.210Z,927.19
2017-08-23T01:55:31.243Z,927.15
2017-08-23T01:55:59.196Z,927.13
2017-08-23T01:56:27.160Z,927.13
2017-08-23T01:56:55.204Z,927.05
2017-08-23T01:57:24.032Z,927.01
2017-08-23T01:58:30.456Z,927.06
2017-08-23T01:58:58.418Z,927.01
2017-08-23T01:59:27.247Z,926.81
2017-08-23T01:59:56.012Z,926.98
2017-08-23T02:00:24.741Z,927.05
2017-08-23T02:00:53.583Z,927.13
2017-08-23T02:01:21.540Z,927.11
2017-08-23T02:01:50.278Z,927.17
2017-08-23T02:02:18.321Z,927.06
2017-08-23T02:02:46.282Z,927.18
2017-08-23T02:03:14.326Z,927.18
2017-08-23T02:03:42.371Z,927.21
2017-08-23T02:04:10.362Z,927.14
2017-08-23T02:04:38.629Z,927.19
2017-08-23T02:05:07.185Z,927.06
2017-08-23T02:05:36.013Z,927.22
2017-08-23T02:06:03.886Z,927.12
2017-08-23T02:06:31.839Z,927.18
2017-08-23T02:06:59.883Z,927.06
2017-08-23T02:07:27.752Z,927.13
2017-08-23T02:07:56.593Z,926.95
2017-08-23T02:08:24.565Z,927.06
2017-08-23T02:08:53.455Z,926.94
2017-08-23T02:09:21.421Z,927.1
2017-08-23T02:09:49.390Z,927.01
2017-08-23T02:10:17.356Z,926.86
2017-08-23T02:10:45.506Z,927.01
2017-08-23T02:11:13.562Z,926.97
2017-08-23T02:11:42.297Z,927.05
2017-08-23T02:12:10.264Z,927.07
2017-08-23T02:12:39.008Z,927.03
2017-08-23T02:13:06.964Z,926.85
2017-08-23T02:13:35.122Z,926.82
2017-08-23T02:14:03.783Z,927.03
2017-08-23T02:14:31.821Z,927
2017-08-23T02:14:59.869Z,926.95
2017-08-23T02:15:27.920Z,926.93
2017-08-23T02:15:55.961Z,926.99
2017-08-23T02:16:24.013Z,926.79
2017-08-23T02:16:52.023Z,926.88
2017-08-23T02:17:19.991Z,926.97
2017-08-23T02:17:47.997Z,927.13
2017-08-23T02:18:16.038Z,926.73
2017-08-23T02:18:44.780Z,927.05
2017-08-23T02:19:12.826Z,927.02
2017-08-23T02:19:41.571Z,926.92
2017-08-23T02:20:09.536Z,926.99
2017-08-23T02:20:38.376Z,926.97
2017-08-23T02:21:06.352Z,926.74
2017-08-23T02:21:34.394Z,926.77
2017-08-23T02:22:03.922Z,926.88
2017-08-23T02:22:31.975Z,926.87
2017-08-23T02:22:59.939Z,926.92
2017-08-23T02:23:28.589Z,926.92
2017-08-23T02:23:57.424Z,926.96
2017-08-23T02:24:25.391Z,926.84
2017-08-23T02:24:53.454Z,926.75
2017-08-23T02:25:22.204Z,926.74
2017-08-23T02:25:50.171Z,926.76
2017-08-23T02:26:18.139Z,926.9
2017-08-23T02:26:46.254Z,926.91
2017-08-23T02:27:14.302Z,926.75
2017-08-23T02:27:42.259Z,926.82
2017-08-23T02:28:11.076Z,926.82
2017-08-23T02:28:39.814Z,926.84
2017-08-23T02:29:10.855Z,926.79
2017-08-23T02:29:38.894Z,926.83
2017-08-23T02:30:06.937Z,926.8
2017-08-23T02:30:34.995Z,926.75
2017-08-23T02:31:02.962Z,926.84
2017-08-23T02:31:31.790Z,926.69
2017-08-23T02:31:59.848Z,926.89
2017-08-23T02:32:28.603Z,926.81
2017-08-23T02:32:56.646Z,926.7
2017-08-23T02:33:24.691Z,926.73
2017-08-23T02:33:52.747Z,926.83
2017-08-23T02:34:22.267Z,926.79
2017-08-23T02:34:50.211Z,926.74
2017-08-23T02:35:18.155Z,926.71
2017-08-23T02:35:46.996Z,926.67
2017-08-23T02:36:15.827Z,926.58
2017-08-23T02:36:43.862Z,926.88
2017-08-23T02:37:50.193Z,926.89
2017-08-23T02:38:18.146Z,926.82
2017-08-23T02:38:46.095Z,926.33
2017-08-23T02:39:14.072Z,926.57
2017-08-23T02:39:42.107Z,926.63
2017-08-23T02:40:10.069Z,926.81
2017-08-23T02:40:38.034Z,926.73
2017-08-23T02:41:06.088Z,926.72
2017-08-23T02:41:34.123Z,926.67
2017-08-23T02:42:02.086Z,926.73
2017-08-23T02:42:30.044Z,926.7
2017-08-23T02:42:58.091Z,926.72
2017-08-23T02:43:26.041Z,926.66
2017-08-23T02:43:54.100Z,926.59
2017-08-23T02:44:22.931Z,926.62
2017-08-23T02:44:50.967Z,926.68
2017-08-23T02:45:20.579Z,926.67
2017-08-23T02:45:48.530Z,926.68
2017-08-23T02:46:16.485Z,926.74
2017-08-23T02:46:44.436Z,926.76
2017-08-23T02:47:12.490Z,926.38
2017-08-23T02:47:40.459Z,926.76
2017-08-23T02:48:08.516Z,926.61
2017-08-23T02:48:36.559Z,926.7
2017-08-23T02:49:04.609Z,926.68
2017-08-23T02:49:32.675Z,926.63
2017-08-23T02:50:00.700Z,926.5
2017-08-23T02:50:28.657Z,926.59
2017-08-23T02:50:56.705Z,926.49
2017-08-23T02:51:24.679Z,926.67
2017-08-23T02:51:52.725Z,926.58
2017-08-23T02:52:20.769Z,926.4
2017-08-23T02:52:48.641Z,926.4
2017-08-23T02:53:16.520Z,926.62
2017-08-23T02:53:44.475Z,926.49
2017-08-23T02:54:12.520Z,926.34
2017-08-23T02:54:40.480Z,926.6
2017-08-23T02:55:08.424Z,926.56
2017-08-23T02:55:37.261Z,926.6
2017-08-23T02:56:05.298Z,926.46
2017-08-23T02:56:33.174Z,926.6
2017-08-23T02:57:01.128Z,926.43
2017-08-23T02:57:29.079Z,926.44
2017-08-23T02:57:57.037Z,926.6
2017-08-23T02:58:25.079Z,926.57
2017-08-23T02:58:53.195Z,926.59
2017-08-23T02:59:21.259Z,926.52
2017-08-23T02:59:50.004Z,926.5
2017-08-23T03:00:17.968Z,926.34
2017-08-23T03:00:46.018Z,926.29
2017-08-23T03:01:13.986Z,926.31
2017-08-23T03:01:42.036Z,926.2
2017-08-23T03:02:10.085Z,926.29
2017-08-23T03:02:38.132Z,926.46
2017-08-23T03:03:06.092Z,926.46
2017-08-23T03:03:34.927Z,926.46
2017-08-23T03:04:02.985Z,926.51
2017-08-23T03:04:30.942Z,926.52
2017-08-23T03:04:58.991Z,926.57
2017-08-23T03:05:27.045Z,926.53
2017-08-23T03:05:55.784Z,926.55
2017-08-23T03:06:23.831Z,926.46
2017-08-23T03:06:51.788Z,926.5
2017-08-23T03:07:20.609Z,926.52
2017-08-23T03:07:48.650Z,926.21
2017-08-23T03:08:16.604Z,926.57
2017-08-23T03:08:44.645Z,926.55
2017-08-23T03:09:13.479Z,926.48
2017-08-23T03:09:41.535Z,926.6
2017-08-23T03:10:09.584Z,926.36
2017-08-23T03:10:37.637Z,926.48
2017-08-23T03:11:06.471Z,926.54
2017-08-23T03:11:34.546Z,926.5
2017-08-23T03:12:03.351Z,926.32
2017-08-23T03:12:31.316Z,926.42
2017-08-23T03:12:59.375Z,926.48
2017-08-23T03:13:27.430Z,926.56
2017-08-23T03:13:55.456Z,926.54
2017-08-23T03:14:24.341Z,926.5
2017-08-23T03:14:53.080Z,926.41
2017-08-23T03:15:21.134Z,926.41
2017-08-23T03:15:49.865Z,926.53
2017-08-23T03:16:56.981Z,926.18
2017-08-23T03:17:25.030Z,926.43
2017-08-23T03:17:52.975Z,926.5
2017-08-23T03:18:20.928Z,926.3
2017-08-23T03:18:48.989Z,926.5
2017-08-23T03:19:17.045Z,926.41
2017-08-23T03:19:45.876Z,926.43
2017-08-23T03:20:13.837Z,926.46
2017-08-23T03:20:41.877Z,926.31
2017-08-23T03:21:10.711Z,926.32
2017-08-23T03:21:38.749Z,926.38
2017-08-23T03:22:07.580Z,926.42
2017-08-23T03:22:35.556Z,926.23
2017-08-23T03:23:03.403Z,926.41
2017-08-23T03:23:31.447Z,926.36
2017-08-23T03:23:59.486Z,926.29
2017-08-23T03:24:28.311Z,926.21
2017-08-23T03:24:57.048Z,926.24
2017-08-23T03:25:25.093Z,926.23
2017-08-23T03:25:53.141Z,926.29
2017-08-23T03:26:21.195Z,926.1
2017-08-23T03:26:49.161Z,926.29
2017-08-23T03:27:17.121Z,926.24
2017-08-23T03:27:45.948Z,926.12
2017-08-23T03:28:13.902Z,926.23
2017-08-23T03:28:41.866Z,926.15
2017-08-23T03:29:10.046Z,926.24
2017-08-23T03:29:38.182Z,926.13
2017-08-23T03:30:06.223Z,926.1
2017-08-23T03:30:34.277Z,926.06
2017-08-23T03:31:02.291Z,926.26
2017-08-23T03:31:30.348Z,926.27
2017-08-23T03:31:59.188Z,926.1
2017-08-23T03:32:27.152Z,926.11
2017-08-23T03:32:55.979Z,926.14
2017-08-23T03:33:24.031Z,925.81
2017-08-23T03:33:52.093Z,926.18
2017-08-23T03:34:20.046Z,925.88
2017-08-23T03:34:48.106Z,926.21
2017-08-23T03:35:16.062Z,926.09
2017-08-23T03:35:44.112Z,926.19
2017-08-23T03:36:12.850Z,926.25
2017-08-23T03:36:41.684Z,926.15
2017-08-23T03:37:09.730Z,926.14
2017-08-23T03:37:37.776Z,925.85
2017-08-23T03:38:05.834Z,926.11
2017-08-23T03:38:35.359Z,926.1
2017-08-23T03:39:04.202Z,926.01
2017-08-23T03:39:32.256Z,926.06
2017-08-23T03:40:01.087Z,926.06
2017-08-23T03:40:29.194Z,925.84
2017-08-23T03:40:57.247Z,925.97
2017-08-23T03:41:25.208Z,925.96
2017-08-23T03:41:53.070Z,926.08
2017-08-23T03:42:21.120Z,926.04
2017-08-23T03:42:49.866Z,925.75
2017-08-23T03:43:17.910Z,925.93
2017-08-23T03:43:45.887Z,926.05
2017-08-23T03:44:13.848Z,926.01
2017-08-23T03:44:42.748Z,926.09
2017-08-23T03:45:10.796Z,926.05
2017-08-23T03:45:38.842Z,926.12
2017-08-23T03:46:07.581Z,925.85
2017-08-23T03:46:35.519Z,925.99
2017-08-23T03:47:03.560Z,925.92
2017-08-23T03:47:31.605Z,925.95
2017-08-23T03:48:00.339Z,925.98
2017-08-23T03:48:28.384Z,925.86
2017-08-23T03:48:56.353Z,925.97
2017-08-23T03:49:25.182Z,925.97
2017-08-23T03:49:54.013Z,925.84
2017-08-23T03:50:21.972Z,925.86
2017-08-23T03:50:50.026Z,925.97
2017-08-23T03:51:17.979Z,925.77
2017-08-23T03:51:46.037Z,925.89
2017-08-23T03:52:14.094Z,925.87
2017-08-23T03:52:42.143Z,926.08
2017-08-23T03:53:10.293Z,925.65
2017-08-23T03:53:39.020Z,926.01
2017-08-23T03:54:07.069Z,925.97
2017-08-23T03:54:35.138Z,925.88
2017-08-23T03:55:03.960Z,926
2017-08-23T03:56:10.195Z,925.92
2017-08-23T03:56:38.245Z,925.9
2017-08-23T03:57:06.192Z,925.93
2017-08-23T03:57:34.238Z,925.81
2017-08-23T03:58:03.852Z,925.87
2017-08-23T03:58:31.811Z,925.95
2017-08-23T03:59:00.555Z,925.85
2017-08-23T03:59:28.608Z,925.93
2017-08-23T03:59:56.706Z,925.89
2017-08-23T04:00:25.538Z,925.88
2017-08-23T04:00:53.585Z,925.9
2017-08-23T04:01:21.636Z,926.02
2017-08-23T04:01:50.306Z,925.92
2017-08-23T04:02:18.262Z,925.81
2017-08-23T04:02:47.868Z,926.02
2017-08-23T04:03:15.909Z,925.89
2017-08-23T04:03:43.866Z,925.95
2017-08-23T04:04:11.823Z,926.01
2017-08-23T04:04:39.878Z,925.96
2017-08-23T04:05:08.707Z,925.96
2017-08-23T04:05:37.539Z,925.84
2017-08-23T04:06:05.604Z,925.94
2017-08-23T04:06:33.661Z,925.97
2017-08-23T04:07:02.401Z,925.97
2017-08-23T04:07:30.356Z,925.94
2017-08-23T04:07:58.315Z,925.89
2017-08-23T04:08:27.143Z,925.94
2017-08-23T04:08:55.199Z,925.89
2017-08-23T04:09:23.236Z,925.89
2017-08-23T04:09:51.107Z,925.96
2017-08-23T04:10:19.068Z,925.9
2017-08-23T04:10:47.119Z,925.96
2017-08-23T04:11:15.174Z,925.88
2017-08-23T04:11:43.918Z,925.98
2017-08-23T04:12:11.965Z,925.43
2017-08-23T04:12:39.932Z,925.63
2017-08-23T04:13:08.802Z,925.88
2017-08-23T04:13:36.726Z,925.99
2017-08-23T04:14:04.685Z,925.9
2017-08-23T04:14:32.726Z,925.88
2017-08-23T04:15:00.928Z,925.98
2017-08-23T04:15:28.877Z,925.85
2017-08-23T04:15:56.928Z,925.93
2017-08-23T04:16:24.979Z,925.91
2017-08-23T04:16:53.804Z,926.03
2017-08-23T04:17:21.790Z,925.91
2017-08-23T04:17:49.844Z,926.03
2017-08-23T04:18:17.729Z,925.93
2017-08-23T04:18:46.566Z,926
2017-08-23T04:19:14.518Z,926
2017-08-23T04:19:43.562Z,925.96
2017-08-23T04:20:11.617Z,925.93
2017-08-23T04:20:40.448Z,925.91
2017-08-23T04:21:09.283Z,925.83
2017-08-23T04:21:37.340Z,925.96
2017-08-23T04:22:05.385Z,925.93
2017-08-23T04:22:34.213Z,925.81
2017-08-23T04:23:03.047Z,925.68
2017-08-23T04:23:31.014Z,925.85
2017-08-23T04:23:59.412Z,925.82
2017-08-23T04:24:27.458Z,925.79
2017-08-23T04:24:57.074Z,925.46
2017-08-23T04:25:24.940Z,925.78
2017-08-23T04:25:53.750Z,925.81
2017-08-23T04:26:22.580Z,925.78
2017-08-23T04:26:50.624Z,925.77
2017-08-23T04:27:19.364Z,925.8
2017-08-23T04:27:47.419Z,925.87
2017-08-23T04:28:15.472Z,925.88
2017-08-23T04:28:43.432Z,925.69
2017-08-23T04:29:11.483Z,925.87
2017-08-23T04:29:39.539Z,925.72
2017-08-23T04:30:08.478Z,925.76
2017-08-23T04:30:36.525Z,925.76
2017-08-23T04:31:04.488Z,925.68
2017-08-23T04:31:32.545Z,925.68
2017-08-23T04:32:00.592Z,925.71
2017-08-23T04:32:28.626Z,925.68
2017-08-23T04:32:56.480Z,925.46
2017-08-23T04:33:24.522Z,925.71
2017-08-23T04:33:52.568Z,925.62
2017-08-23T04:34:20.604Z,925.58
2017-08-23T04:35:27.034Z,925.72
2017-08-23T04:35:55.081Z,925.78
2017-08-23T04:36:23.022Z,925.77
2017-08-23T04:36:51.847Z,925.55
2017-08-23T04:37:20.090Z,925.65
2017-08-23T04:37:48.145Z,925.85
2017-08-23T04:38:16.187Z,925.81
2017-08-23T04:38:44.234Z,925.76
2017-08-23T04:39:12.972Z,925.78
2017-08-23T04:39:41.021Z,925.74
2017-08-23T04:40:09.854Z,925.7
2017-08-23T04:40:37.809Z,925.62
2017-08-23T04:41:05.856Z,925.68
2017-08-23T04:41:33.908Z,925.64
2017-08-23T04:42:01.961Z,925.63
2017-08-23T04:42:30.784Z,925.57
2017-08-23T04:42:59.523Z,925.68
2017-08-23T04:43:27.566Z,925.65
2017-08-23T04:43:55.620Z,925.69
2017-08-23T04:44:24.455Z,925.56
2017-08-23T04:44:53.193Z,925.57
2017-08-23T04:45:21.508Z,925.59
2017-08-23T04:45:49.472Z,925.6
2017-08-23T04:46:17.432Z,925.63
2017-08-23T04:46:45.383Z,925.55
2017-08-23T04:47:13.343Z,925.67
2017-08-23T04:47:42.177Z,925.63
2017-08-23T04:48:10.228Z,925.53
2017-08-23T04:48:38.975Z,925.67
2017-08-23T04:49:07.020Z,925.66
2017-08-23T04:49:35.766Z,925.62
2017-08-23T04:50:03.806Z,925.66
2017-08-23T04:50:31.859Z,925.59
2017-08-23T04:50:59.826Z,925.51
2017-08-23T04:51:28.648Z,925.57
2017-08-23T04:51:56.692Z,925.34
2017-08-23T04:52:25.519Z,925.46
2017-08-23T04:52:53.559Z,925.52
2017-08-23T04:53:21.609Z,925.47
2017-08-23T04:53:50.249Z,925.55
2017-08-23T04:54:18.206Z,925.46
2017-08-23T04:54:47.044Z,925.52
2017-08-23T04:55:15.091Z,925.48
2017-08-23T04:55:43.144Z,925.46
2017-08-23T04:56:11.189Z,925.58
2017-08-23T04:56:40.032Z,925.54
2017-08-23T04:57:07.991Z,925.59
2017-08-23T04:57:37.522Z,925.59
2017-08-23T04:58:05.577Z,925.68
2017-08-23T04:58:35.189Z,925.61
2017-08-23T04:59:03.246Z,925.57
2017-08-23T04:59:31.295Z,925.57
2017-08-23T05:00:00.037Z,925.56
2017-08-23T05:00:28.443Z,925.64
2017-08-23T05:00:56.408Z,925.55
2017-08-23T05:01:26.023Z,925.51
2017-08-23T05:01:54.071Z,925.49
2017-08-23T05:02:22.900Z,925.48
2017-08-23T05:02:50.961Z,925.5
2017-08-23T05:03:19.013Z,925.48
2017-08-23T05:03:46.989Z,925.47
2017-08-23T05:04:15.634Z,925.39
2017-08-23T05:04:43.705Z,925.45
2017-08-23T05:05:11.632Z,925.44
2017-08-23T05:05:39.599Z,925.51
2017-08-23T05:06:07.555Z,925.45
2017-08-23T05:06:36.376Z,925.54
2017-08-23T05:07:04.423Z,925.58
2017-08-23T05:07:32.395Z,925.59
2017-08-23T05:08:01.226Z,925.59
2017-08-23T05:08:29.279Z,925.63
2017-08-23T05:08:57.246Z,925.61
2017-08-23T05:09:25.240Z,925.59
2017-08-23T05:09:53.252Z,925.61
2017-08-23T05:10:21.304Z,925.57
2017-08-23T05:10:49.271Z,925.61
2017-08-23T05:11:17.317Z,925.59
2017-08-23T05:11:45.264Z,925.57
2017-08-23T05:12:13.207Z,925.57
2017-08-23T05:12:42.814Z,925.44
2017-08-23T05:13:11.553Z,925.51
2017-08-23T05:13:40.286Z,925.43
2017-08-23T05:14:46.612Z,925.53
2017-08-23T05:15:14.649Z,925.52
2017-08-23T05:15:42.605Z,925.51
2017-08-23T05:16:10.650Z,925.49
2017-08-23T05:16:38.698Z,925.52
2017-08-23T05:17:07.440Z,925.53
2017-08-23T05:17:36.876Z,925.55
2017-08-23T05:18:04.923Z,925.53
2017-08-23T05:18:33.652Z,925.61
2017-08-23T05:19:01.604Z,925.69
2017-08-23T05:19:29.580Z,925.69
2017-08-23T05:19:57.623Z,925.6
2017-08-23T05:20:25.667Z,925.68
2017-08-23T05:20:53.718Z,925.65
2017-08-23T05:21:21.771Z,925.61
2017-08-23T05:21:49.801Z,925.63
2017-08-23T05:22:18.633Z,925.66
2017-08-23T05:22:46.672Z,925.61
2017-08-23T05:23:15.501Z,925.49
2017-08-23T05:23:43.460Z,925.48
2017-08-23T05:24:11.339Z,925.37
2017-08-23T05:24:39.310Z,925.33
2017-08-23T05:25:08.059Z,925.55
2017-08-23T05:25:36.014Z,925.45
2017-08-23T05:26:04.058Z,925.44
2017-08-23T05:26:32.107Z,925.56
2017-08-23T05:27:00.936Z,925.51
2017-08-23T05:27:28.888Z,925.39
2017-08-23T05:27:58.494Z,925.53
2017-08-23T05:28:26.454Z,925.59
2017-08-23T05:28:54.421Z,925.59
2017-08-23T05:29:23.454Z,925.59
2017-08-23T05:29:51.509Z,925.68
2017-08-23T05:30:19.475Z,925.61
2017-08-23T05:30:47.612Z,925.63
2017-08-23T05:31:16.594Z,925.65
2017-08-23T05:31:44.641Z,925.53
2017-08-23T05:32:13.375Z,925.54
2017-08-23T05:32:41.327Z,925.56
2017-08-23T05:33:10.157Z,925.53
2017-08-23T05:33:38.898Z,925.54
2017-08-23T05:34:06.857Z,925.48
2017-08-23T05:34:34.905Z,925.5
2017-08-23T05:35:03.734Z,925.52
2017-08-23T05:35:31.794Z,925.53
2017-08-23T05:36:00.001Z,925.55
2017-08-23T05:36:27.966Z,925.55
2017-08-23T05:36:56.033Z,925.56
2017-08-23T05:37:24.514Z,925.57
2017-08-23T05:37:53.343Z,925.57
2017-08-23T05:38:21.220Z,925.59
2017-08-23T05:38:49.277Z,925.54
2017-08-23T05:39:17.331Z,925.64
2017-08-23T05:39:45.378Z,925.59
2017-08-23T05:40:13.432Z,925.59
2017-08-23T05:40:41.302Z,925.5
2017-08-23T05:41:09.951Z,925.53
2017-08-23T05:41:37.914Z,925.6
2017-08-23T05:42:07.537Z,925.61
2017-08-23T05:42:35.414Z,925.46
2017-08-23T05:43:03.462Z,925.53
2017-08-23T05:43:32.199Z,925.55
2017-08-23T05:44:00.252Z,925.51
2017-08-23T05:44:28.979Z,925.53
2017-08-23T05:44:57.022Z,925.47
2017-08-23T05:45:24.980Z,925.38
2017-08-23T05:45:52.988Z,925.44
2017-08-23T05:46:21.729Z,925.41
2017-08-23T05:46:49.784Z,925.37
2017-08-23T05:47:17.841Z,925.41
2017-08-23T05:47:45.887Z,925.45
2017-08-23T05:48:14.730Z,925.42
2017-08-23T05:48:42.787Z,925.44
2017-08-23T05:49:10.827Z,925.51
2017-08-23T05:49:38.881Z,925.45
2017-08-23T05:50:07.722Z,925.47
2017-08-23T05:50:35.778Z,925.52
2017-08-23T05:51:03.815Z,925.52
2017-08-23T05:51:31.846Z,925.32
2017-08-23T05:51:59.887Z,925.45
2017-08-23T05:52:28.622Z,925.47
2017-08-23T05:52:56.564Z,925.43
2017-08-23T05:54:02.902Z,925.49
2017-08-23T05:54:30.947Z,925.48
2017-08-23T05:54:58.987Z,925.42
2017-08-23T05:55:27.033Z,925.43
2017-08-23T05:55:55.788Z,925.48
2017-08-23T05:56:23.842Z,925.38
2017-08-23T05:56:51.793Z,925.39
2017-08-23T05:57:19.750Z,925.42
2017-08-23T05:57:47.788Z,925.43
2017-08-23T05:58:16.266Z,925.36
2017-08-23T05:58:44.307Z,925.43
2017-08-23T05:59:12.359Z,925.28
2017-08-23T05:59:41.182Z,925.36
2017-08-23T06:00:10.015Z,925.41